sensor_id;sensor_type;location;lat;lon;timestamp;P1;durP1;ratioP1;P2;durP2;ratioP2
24559;SDS011;12727;49.934;8.656;2024-01-27T00:01:16;8.25;;;2.78;;
24559;SDS011;12727;49.934;8.656;2024-01-27T00:03:42;8.27;;;2.65;;
24559;SDS011;12727;49.934;8.656;2024-01-27T00:06:07;11.32;;;2.85;;
24559;SDS011;12727;49.934;8.656;2024-01-27T00:08:33;11.00;;;2.78;;
24559;SDS011;12727;49.934;8.656;2024-01-27T00:10:59;8.52;;;2.58;;
24559;SDS011;12727;49.934;8.656;2024-01-27T00:13:24;8.27;;;2.63;;
24559;SDS011;12727;49.934;8.656;2024-01-27T00:15:50;6.60;;;2.33;;
24559;SDS011;12727;49.934;8.656;2024-01-27T00:18:16;13.38;;;3.72;;
24559;SDS011;12727;49.934;8.656;2024-01-27T00:20:42;9.63;;;3.40;;
24559;SDS011;12727;49.934;8.656;2024-01-27T00:23:08;9.48;;;3.13;;
24559;SDS011;12727;49.934;8.656;2024-01-27T00:25:33;8.88;;;3.30;;
24559;SDS011;12727;49.934;8.656;2024-01-27T00:27:59;14.05;;;3.40;;
24559;SDS011;12727;49.934;8.656;2024-01-27T00:30:24;9.00;;;2.97;;
24559;SDS011;12727;49.934;8.656;2024-01-27T00:32:51;8.73;;;3.58;;
24559;SDS011;12727;49.934;8.656;2024-01-27T00:35:17;9.85;;;3.38;;
24559;SDS011;12727;49.934;8.656;2024-01-27T00:37:42;9.60;;;3.28;;
24559;SDS011;12727;49.934;8.656;2024-01-27T00:40:08;10.10;;;2.97;;
24559;SDS011;12727;49.934;8.656;2024-01-27T00:42:35;12.43;;;3.25;;
24559;SDS011;12727;49.934;8.656;2024-01-27T00:45:03;10.07;;;2.92;;
24559;SDS011;12727;49.934;8.656;2024-01-27T00:47:29;7.90;;;3.05;;
24559;SDS011;12727;49.934;8.656;2024-01-27T00:49:55;10.88;;;2.97;;
24559;SDS011;12727;49.934;8.656;2024-01-27T00:52:20;13.52;;;3.17;;
24559;SDS011;12727;49.934;8.656;2024-01-27T00:54:46;8.50;;;2.92;;
24559;SDS011;12727;49.934;8.656;2024-01-27T00:57:11;11.88;;;3.03;;
24559;SDS011;12727;49.934;8.656;2024-01-27T00:59:37;6.50;;;2.67;;
24559;SDS011;12727;49.934;8.656;2024-01-27T01:02:03;12.38;;;3.08;;
24559;SDS011;12727;49.934;8.656;2024-01-27T01:04:29;12.57;;;3.03;;
24559;SDS011;12727;49.934;8.656;2024-01-27T01:06:55;9.80;;;2.97;;
24559;SDS011;12727;49.934;8.656;2024-01-27T01:09:21;9.80;;;3.20;;
24559;SDS011;12727;49.934;8.656;2024-01-27T01:11:46;8.07;;;3.10;;
24559;SDS011;12727;49.934;8.656;2024-01-27T01:14:12;8.88;;;2.90;;
24559;SDS011;12727;49.934;8.656;2024-01-27T01:16:38;8.95;;;2.78;;
24559;SDS011;12727;49.934;8.656;2024-01-27T01:19:04;9.73;;;3.30;;
24559;SDS011;12727;49.934;8.656;2024-01-27T01:21:30;8.05;;;2.92;;
24559;SDS011;12727;49.934;8.656;2024-01-27T01:23:55;15.50;;;3.50;;
24559;SDS011;12727;49.934;8.656;2024-01-27T01:26:21;12.82;;;3.08;;
24559;SDS011;12727;49.934;8.656;2024-01-27T01:28:46;7.65;;;2.78;;
24559;SDS011;12727;49.934;8.656;2024-01-27T01:31:12;11.68;;;4.03;;
24559;SDS011;12727;49.934;8.656;2024-01-27T01:33:37;10.40;;;3.90;;
24559;SDS011;12727;49.934;8.656;2024-01-27T01:36:03;14.80;;;4.63;;
24559;SDS011;12727;49.934;8.656;2024-01-27T01:38:29;9.20;;;4.18;;
24559;SDS011;12727;49.934;8.656;2024-01-27T01:40:54;14.68;;;3.80;;
24559;SDS011;12727;49.934;8.656;2024-01-27T01:43:20;12.27;;;3.50;;
24559;SDS011;12727;49.934;8.656;2024-01-27T01:45:45;12.27;;;3.20;;
24559;SDS011;12727;49.934;8.656;2024-01-27T01:48:11;9.20;;;3.30;;
24559;SDS011;12727;49.934;8.656;2024-01-27T01:50:36;10.95;;;3.50;;
24559;SDS011;12727;49.934;8.656;2024-01-27T01:53:02;8.88;;;3.42;;
24559;SDS011;12727;49.934;8.656;2024-01-27T01:55:29;7.78;;;3.45;;
24559;SDS011;12727;49.934;8.656;2024-01-27T01:57:54;12.02;;;2.75;;
24559;SDS011;12727;49.934;8.656;2024-01-27T02:00:20;11.77;;;3.60;;
24559;SDS011;12727;49.934;8.656;2024-01-27T02:02:46;11.23;;;3.00;;
24559;SDS011;12727;49.934;8.656;2024-01-27T02:05:13;9.82;;;2.78;;
24559;SDS011;12727;49.934;8.656;2024-01-27T02:07:39;9.05;;;2.88;;
24559;SDS011;12727;49.934;8.656;2024-01-27T02:10:05;10.60;;;3.15;;
24559;SDS011;12727;49.934;8.656;2024-01-27T02:12:37;7.55;;;3.00;;
24559;SDS011;12727;49.934;8.656;2024-01-27T02:15:02;14.93;;;3.70;;
24559;SDS011;12727;49.934;8.656;2024-01-27T02:17:28;8.93;;;3.38;;
24559;SDS011;12727;49.934;8.656;2024-01-27T02:19:54;12.82;;;3.63;;
24559;SDS011;12727;49.934;8.656;2024-01-27T02:22:19;11.90;;;3.63;;
24559;SDS011;12727;49.934;8.656;2024-01-27T02:24:45;9.68;;;3.85;;
24559;SDS011;12727;49.934;8.656;2024-01-27T02:27:11;11.20;;;3.80;;
24559;SDS011;12727;49.934;8.656;2024-01-27T02:29:37;14.90;;;3.80;;
24559;SDS011;12727;49.934;8.656;2024-01-27T02:32:03;11.82;;;4.25;;
24559;SDS011;12727;49.934;8.656;2024-01-27T02:34:29;13.27;;;4.75;;
24559;SDS011;12727;49.934;8.656;2024-01-27T02:36:54;16.15;;;4.22;;
24559;SDS011;12727;49.934;8.656;2024-01-27T02:39:20;16.40;;;4.18;;
24559;SDS011;12727;49.934;8.656;2024-01-27T02:41:46;16.13;;;3.80;;
24559;SDS011;12727;49.934;8.656;2024-01-27T02:44:12;11.70;;;3.53;;
24559;SDS011;12727;49.934;8.656;2024-01-27T02:46:37;12.38;;;3.63;;
24559;SDS011;12727;49.934;8.656;2024-01-27T02:49:03;14.60;;;3.25;;
24559;SDS011;12727;49.934;8.656;2024-01-27T02:51:28;12.48;;;4.95;;
24559;SDS011;12727;49.934;8.656;2024-01-27T02:53:54;9.45;;;4.05;;
24559;SDS011;12727;49.934;8.656;2024-01-27T02:56:19;11.35;;;5.28;;
24559;SDS011;12727;49.934;8.656;2024-01-27T02:58:45;9.18;;;4.03;;
24559;SDS011;12727;49.934;8.656;2024-01-27T03:01:10;9.73;;;3.88;;
24559;SDS011;12727;49.934;8.656;2024-01-27T03:03:36;10.23;;;3.70;;
24559;SDS011;12727;49.934;8.656;2024-01-27T03:06:01;7.82;;;3.72;;
24559;SDS011;12727;49.934;8.656;2024-01-27T03:08:27;8.90;;;3.17;;
24559;SDS011;12727;49.934;8.656;2024-01-27T03:10:52;10.40;;;3.35;;
24559;SDS011;12727;49.934;8.656;2024-01-27T03:13:18;8.70;;;3.05;;
24559;SDS011;12727;49.934;8.656;2024-01-27T03:15:44;9.95;;;3.70;;
24559;SDS011;12727;49.934;8.656;2024-01-27T03:18:10;10.93;;;3.95;;
24559;SDS011;12727;49.934;8.656;2024-01-27T03:20:35;9.30;;;3.83;;
24559;SDS011;12727;49.934;8.656;2024-01-27T03:23:01;14.10;;;4.22;;
24559;SDS011;12727;49.934;8.656;2024-01-27T03:25:26;9.75;;;3.53;;
24559;SDS011;12727;49.934;8.656;2024-01-27T03:27:52;9.90;;;3.67;;
24559;SDS011;12727;49.934;8.656;2024-01-27T03:30:17;13.85;;;4.47;;
24559;SDS011;12727;49.934;8.656;2024-01-27T03:32:43;12.00;;;3.97;;
24559;SDS011;12727;49.934;8.656;2024-01-27T03:35:09;13.85;;;4.22;;
24559;SDS011;12727;49.934;8.656;2024-01-27T03:37:34;14.00;;;4.68;;
24559;SDS011;12727;49.934;8.656;2024-01-27T03:40:00;12.93;;;4.43;;
24559;SDS011;12727;49.934;8.656;2024-01-27T03:42:26;9.18;;;4.13;;
24559;SDS011;12727;49.934;8.656;2024-01-27T03:44:52;14.15;;;4.80;;
24559;SDS011;12727;49.934;8.656;2024-01-27T03:47:17;11.45;;;3.97;;
24559;SDS011;12727;49.934;8.656;2024-01-27T03:49:43;15.32;;;4.78;;
24559;SDS011;12727;49.934;8.656;2024-01-27T03:52:09;10.10;;;3.92;;
24559;SDS011;12727;49.934;8.656;2024-01-27T03:54:37;8.82;;;3.78;;
24559;SDS011;12727;49.934;8.656;2024-01-27T03:57:03;14.77;;;4.43;;
24559;SDS011;12727;49.934;8.656;2024-01-27T03:59:29;15.07;;;3.55;;
24559;SDS011;12727;49.934;8.656;2024-01-27T04:01:54;12.85;;;4.07;;
24559;SDS011;12727;49.934;8.656;2024-01-27T04:04:20;10.80;;;4.07;;
24559;SDS011;12727;49.934;8.656;2024-01-27T04:06:46;14.50;;;4.18;;
24559;SDS011;12727;49.934;8.656;2024-01-27T04:09:11;17.77;;;3.90;;
24559;SDS011;12727;49.934;8.656;2024-01-27T04:11:37;12.70;;;3.72;;
24559;SDS011;12727;49.934;8.656;2024-01-27T04:14:04;13.80;;;3.70;;
24559;SDS011;12727;49.934;8.656;2024-01-27T04:16:30;11.70;;;3.95;;
24559;SDS011;12727;49.934;8.656;2024-01-27T04:18:56;11.38;;;3.42;;
24559;SDS011;12727;49.934;8.656;2024-01-27T04:21:21;12.57;;;4.13;;
24559;SDS011;12727;49.934;8.656;2024-01-27T04:23:47;14.80;;;3.95;;
24559;SDS011;12727;49.934;8.656;2024-01-27T04:26:12;12.15;;;3.78;;
24559;SDS011;12727;49.934;8.656;2024-01-27T04:28:38;11.65;;;3.55;;
24559;SDS011;12727;49.934;8.656;2024-01-27T04:31:04;11.68;;;3.45;;
24559;SDS011;12727;49.934;8.656;2024-01-27T04:33:29;10.63;;;3.25;;
24559;SDS011;12727;49.934;8.656;2024-01-27T04:35:55;11.02;;;3.47;;
24559;SDS011;12727;49.934;8.656;2024-01-27T04:38:21;17.42;;;3.65;;
24559;SDS011;12727;49.934;8.656;2024-01-27T04:40:46;12.98;;;3.40;;
24559;SDS011;12727;49.934;8.656;2024-01-27T04:43:16;14.07;;;3.55;;
24559;SDS011;12727;49.934;8.656;2024-01-27T04:45:43;5.72;;;2.95;;
24559;SDS011;12727;49.934;8.656;2024-01-27T04:48:09;12.73;;;3.85;;
24559;SDS011;12727;49.934;8.656;2024-01-27T04:50:34;12.00;;;3.50;;
24559;SDS011;12727;49.934;8.656;2024-01-27T04:53:00;12.73;;;3.85;;
24559;SDS011;12727;49.934;8.656;2024-01-27T04:55:26;14.70;;;3.33;;
24559;SDS011;12727;49.934;8.656;2024-01-27T04:57:52;12.65;;;3.58;;
24559;SDS011;12727;49.934;8.656;2024-01-27T05:00:18;11.25;;;3.25;;
24559;SDS011;12727;49.934;8.656;2024-01-27T05:02:44;13.48;;;3.50;;
24559;SDS011;12727;49.934;8.656;2024-01-27T05:05:11;9.35;;;3.72;;
24559;SDS011;12727;49.934;8.656;2024-01-27T05:07:39;17.48;;;3.78;;
24559;SDS011;12727;49.934;8.656;2024-01-27T05:10:05;16.92;;;4.15;;
24559;SDS011;12727;49.934;8.656;2024-01-27T05:12:31;8.45;;;3.63;;
24559;SDS011;12727;49.934;8.656;2024-01-27T05:14:56;11.07;;;3.67;;
24559;SDS011;12727;49.934;8.656;2024-01-27T05:17:22;11.63;;;3.65;;
24559;SDS011;12727;49.934;8.656;2024-01-27T05:19:49;14.35;;;3.92;;
24559;SDS011;12727;49.934;8.656;2024-01-27T05:22:15;12.38;;;4.00;;
24559;SDS011;12727;49.934;8.656;2024-01-27T05:24:40;12.43;;;3.67;;
24559;SDS011;12727;49.934;8.656;2024-01-27T05:27:06;13.63;;;4.07;;
24559;SDS011;12727;49.934;8.656;2024-01-27T05:29:31;9.32;;;3.38;;
24559;SDS011;12727;49.934;8.656;2024-01-27T05:31:57;16.85;;;3.67;;
24559;SDS011;12727;49.934;8.656;2024-01-27T05:34:23;11.90;;;4.10;;
24559;SDS011;12727;49.934;8.656;2024-01-27T05:36:48;11.32;;;3.65;;
24559;SDS011;12727;49.934;8.656;2024-01-27T05:39:14;14.15;;;3.65;;
24559;SDS011;12727;49.934;8.656;2024-01-27T05:41:40;14.50;;;4.15;;
24559;SDS011;12727;49.934;8.656;2024-01-27T05:44:05;11.20;;;3.85;;
24559;SDS011;12727;49.934;8.656;2024-01-27T05:46:31;15.30;;;3.92;;
24559;SDS011;12727;49.934;8.656;2024-01-27T05:48:56;13.40;;;4.13;;
24559;SDS011;12727;49.934;8.656;2024-01-27T05:51:27;17.40;;;5.57;;
24559;SDS011;12727;49.934;8.656;2024-01-27T05:53:53;11.63;;;3.78;;
24559;SDS011;12727;49.934;8.656;2024-01-27T05:56:18;14.38;;;3.95;;
24559;SDS011;12727;49.934;8.656;2024-01-27T05:58:45;11.57;;;4.03;;
24559;SDS011;12727;49.934;8.656;2024-01-27T06:01:11;17.13;;;3.85;;
24559;SDS011;12727;49.934;8.656;2024-01-27T06:03:37;12.43;;;3.70;;
24559;SDS011;12727;49.934;8.656;2024-01-27T06:06:02;13.27;;;3.95;;
24559;SDS011;12727;49.934;8.656;2024-01-27T06:08:28;10.15;;;4.38;;
24559;SDS011;12727;49.934;8.656;2024-01-27T06:10:54;14.73;;;4.13;;
24559;SDS011;12727;49.934;8.656;2024-01-27T06:13:19;11.75;;;3.85;;
24559;SDS011;12727;49.934;8.656;2024-01-27T06:15:45;15.70;;;3.90;;
24559;SDS011;12727;49.934;8.656;2024-01-27T06:18:10;11.00;;;4.40;;
24559;SDS011;12727;49.934;8.656;2024-01-27T06:20:36;11.77;;;4.13;;
24559;SDS011;12727;49.934;8.656;2024-01-27T06:23:02;17.45;;;4.60;;
24559;SDS011;12727;49.934;8.656;2024-01-27T06:25:27;10.70;;;4.22;;
24559;SDS011;12727;49.934;8.656;2024-01-27T06:27:53;15.65;;;5.25;;
24559;SDS011;12727;49.934;8.656;2024-01-27T06:30:18;12.27;;;4.07;;
24559;SDS011;12727;49.934;8.656;2024-01-27T06:32:44;8.75;;;3.83;;
24559;SDS011;12727;49.934;8.656;2024-01-27T06:35:09;11.35;;;3.70;;
24559;SDS011;12727;49.934;8.656;2024-01-27T06:37:35;12.43;;;4.40;;
24559;SDS011;12727;49.934;8.656;2024-01-27T06:40:01;16.45;;;3.85;;
24559;SDS011;12727;49.934;8.656;2024-01-27T06:42:27;14.73;;;4.00;;
24559;SDS011;12727;49.934;8.656;2024-01-27T06:44:52;17.58;;;5.15;;
24559;SDS011;12727;49.934;8.656;2024-01-27T06:47:18;11.85;;;4.25;;
24559;SDS011;12727;49.934;8.656;2024-01-27T06:49:43;16.00;;;4.05;;
24559;SDS011;12727;49.934;8.656;2024-01-27T06:52:09;13.45;;;4.43;;
24559;SDS011;12727;49.934;8.656;2024-01-27T06:54:34;11.52;;;4.85;;
24559;SDS011;12727;49.934;8.656;2024-01-27T06:57:01;11.35;;;4.28;;
24559;SDS011;12727;49.934;8.656;2024-01-27T06:59:27;13.80;;;4.50;;
24559;SDS011;12727;49.934;8.656;2024-01-27T07:01:52;12.07;;;4.75;;
24559;SDS011;12727;49.934;8.656;2024-01-27T07:04:18;9.85;;;3.63;;
24559;SDS011;12727;49.934;8.656;2024-01-27T07:06:44;14.85;;;4.43;;
24559;SDS011;12727;49.934;8.656;2024-01-27T07:09:09;11.98;;;4.32;;
24559;SDS011;12727;49.934;8.656;2024-01-27T07:11:36;16.55;;;4.63;;
24559;SDS011;12727;49.934;8.656;2024-01-27T07:14:02;13.88;;;5.22;;
24559;SDS011;12727;49.934;8.656;2024-01-27T07:16:28;14.15;;;4.68;;
24559;SDS011;12727;49.934;8.656;2024-01-27T07:18:54;16.80;;;4.78;;
24559;SDS011;12727;49.934;8.656;2024-01-27T07:21:20;17.95;;;4.95;;
24559;SDS011;12727;49.934;8.656;2024-01-27T07:23:46;13.95;;;5.00;;
24559;SDS011;12727;49.934;8.656;2024-01-27T07:26:12;15.05;;;4.80;;
24559;SDS011;12727;49.934;8.656;2024-01-27T07:28:38;21.38;;;5.10;;
24559;SDS011;12727;49.934;8.656;2024-01-27T07:31:04;26.52;;;5.82;;
24559;SDS011;12727;49.934;8.656;2024-01-27T07:33:30;14.02;;;4.53;;
24559;SDS011;12727;49.934;8.656;2024-01-27T07:35:56;14.02;;;4.55;;
24559;SDS011;12727;49.934;8.656;2024-01-27T07:38:22;14.00;;;5.50;;
24559;SDS011;12727;49.934;8.656;2024-01-27T07:40:47;15.25;;;5.22;;
24559;SDS011;12727;49.934;8.656;2024-01-27T07:43:13;14.93;;;5.20;;
24559;SDS011;12727;49.934;8.656;2024-01-27T07:45:38;21.15;;;5.90;;
24559;SDS011;12727;49.934;8.656;2024-01-27T07:48:04;10.45;;;5.15;;
24559;SDS011;12727;49.934;8.656;2024-01-27T07:50:30;15.73;;;4.95;;
24559;SDS011;12727;49.934;8.656;2024-01-27T07:52:56;16.45;;;5.68;;
24559;SDS011;12727;49.934;8.656;2024-01-27T07:55:22;16.20;;;5.40;;
24559;SDS011;12727;49.934;8.656;2024-01-27T07:57:48;14.32;;;4.38;;
24559;SDS011;12727;49.934;8.656;2024-01-27T08:00:14;13.32;;;4.55;;
24559;SDS011;12727;49.934;8.656;2024-01-27T08:02:39;13.57;;;4.70;;
24559;SDS011;12727;49.934;8.656;2024-01-27T08:05:05;12.90;;;4.22;;
24559;SDS011;12727;49.934;8.656;2024-01-27T08:07:31;7.95;;;3.15;;
24559;SDS011;12727;49.934;8.656;2024-01-27T08:09:57;10.23;;;3.90;;
24559;SDS011;12727;49.934;8.656;2024-01-27T08:12:22;12.25;;;3.92;;
24559;SDS011;12727;49.934;8.656;2024-01-27T08:14:48;8.07;;;3.60;;
24559;SDS011;12727;49.934;8.656;2024-01-27T08:17:14;12.35;;;3.88;;
24559;SDS011;12727;49.934;8.656;2024-01-27T08:19:39;8.02;;;4.07;;
24559;SDS011;12727;49.934;8.656;2024-01-27T08:22:05;13.23;;;3.92;;
24559;SDS011;12727;49.934;8.656;2024-01-27T08:24:30;10.18;;;3.50;;
24559;SDS011;12727;49.934;8.656;2024-01-27T08:26:56;6.82;;;3.42;;
24559;SDS011;12727;49.934;8.656;2024-01-27T08:29:23;13.27;;;3.30;;
24559;SDS011;12727;49.934;8.656;2024-01-27T08:31:49;10.45;;;2.92;;
24559;SDS011;12727;49.934;8.656;2024-01-27T08:34:15;8.50;;;3.38;;
24559;SDS011;12727;49.934;8.656;2024-01-27T08:36:41;12.60;;;3.60;;
24559;SDS011;12727;49.934;8.656;2024-01-27T08:39:06;10.70;;;3.78;;
24559;SDS011;12727;49.934;8.656;2024-01-27T08:41:32;9.10;;;3.75;;
24559;SDS011;12727;49.934;8.656;2024-01-27T08:43:59;8.48;;;3.55;;
24559;SDS011;12727;49.934;8.656;2024-01-27T08:46:24;10.52;;;3.83;;
24559;SDS011;12727;49.934;8.656;2024-01-27T08:48:50;8.82;;;3.50;;
24559;SDS011;12727;49.934;8.656;2024-01-27T08:51:15;11.13;;;3.50;;
24559;SDS011;12727;49.934;8.656;2024-01-27T08:53:42;10.55;;;3.30;;
24559;SDS011;12727;49.934;8.656;2024-01-27T08:56:14;8.27;;;3.50;;
24559;SDS011;12727;49.934;8.656;2024-01-27T08:58:40;9.35;;;3.55;;
24559;SDS011;12727;49.934;8.656;2024-01-27T09:01:07;8.73;;;3.17;;
24559;SDS011;12727;49.934;8.656;2024-01-27T09:03:34;8.30;;;3.13;;
24559;SDS011;12727;49.934;8.656;2024-01-27T09:06:00;7.60;;;3.03;;
24559;SDS011;12727;49.934;8.656;2024-01-27T09:08:25;11.15;;;3.13;;
24559;SDS011;12727;49.934;8.656;2024-01-27T09:10:51;10.25;;;3.00;;
24559;SDS011;12727;49.934;8.656;2024-01-27T09:13:17;9.35;;;3.40;;
24559;SDS011;12727;49.934;8.656;2024-01-27T09:15:43;11.07;;;3.55;;
24559;SDS011;12727;49.934;8.656;2024-01-27T09:18:08;6.88;;;2.80;;
24559;SDS011;12727;49.934;8.656;2024-01-27T09:20:34;14.02;;;3.38;;
24559;SDS011;12727;49.934;8.656;2024-01-27T09:22:59;11.10;;;3.40;;
24559;SDS011;12727;49.934;8.656;2024-01-27T09:25:25;8.02;;;3.53;;
24559;SDS011;12727;49.934;8.656;2024-01-27T09:30:18;10.60;;;3.63;;
24559;SDS011;12727;49.934;8.656;2024-01-27T09:32:43;10.20;;;3.15;;
24559;SDS011;12727;49.934;8.656;2024-01-27T09:35:09;10.27;;;3.55;;
24559;SDS011;12727;49.934;8.656;2024-01-27T09:37:35;9.85;;;3.20;;
24559;SDS011;12727;49.934;8.656;2024-01-27T09:40:00;8.77;;;3.25;;
24559;SDS011;12727;49.934;8.656;2024-01-27T09:42:27;8.20;;;3.50;;
24559;SDS011;12727;49.934;8.656;2024-01-27T09:44:53;10.95;;;3.42;;
24559;SDS011;12727;49.934;8.656;2024-01-27T09:47:23;9.20;;;3.80;;
24559;SDS011;12727;49.934;8.656;2024-01-27T09:49:48;10.07;;;4.03;;
24559;SDS011;12727;49.934;8.656;2024-01-27T09:52:15;7.88;;;3.60;;
24559;SDS011;12727;49.934;8.656;2024-01-27T09:54:40;7.70;;;3.83;;
24559;SDS011;12727;49.934;8.656;2024-01-27T09:57:07;10.77;;;3.65;;
24559;SDS011;12727;49.934;8.656;2024-01-27T09:59:34;9.10;;;3.30;;
24559;SDS011;12727;49.934;8.656;2024-01-27T10:02:01;12.18;;;3.42;;
24559;SDS011;12727;49.934;8.656;2024-01-27T10:04:28;8.75;;;3.15;;
24559;SDS011;12727;49.934;8.656;2024-01-27T10:06:54;11.30;;;3.53;;
24559;SDS011;12727;49.934;8.656;2024-01-27T10:09:22;10.00;;;3.17;;
24559;SDS011;12727;49.934;8.656;2024-01-27T10:11:48;8.48;;;2.90;;
24559;SDS011;12727;49.934;8.656;2024-01-27T10:14:14;10.65;;;2.88;;
24559;SDS011;12727;49.934;8.656;2024-01-27T10:16:43;10.27;;;2.83;;
24559;SDS011;12727;49.934;8.656;2024-01-27T10:19:15;10.10;;;3.25;;
24559;SDS011;12727;49.934;8.656;2024-01-27T10:24:12;10.25;;;3.00;;
24559;SDS011;12727;49.934;8.656;2024-01-27T10:26:38;11.77;;;3.15;;
24559;SDS011;12727;49.934;8.656;2024-01-27T10:29:03;9.10;;;3.08;;
24559;SDS011;12727;49.934;8.656;2024-01-27T10:31:30;9.95;;;2.85;;
24559;SDS011;12727;49.934;8.656;2024-01-27T10:33:58;14.48;;;3.22;;
24559;SDS011;12727;49.934;8.656;2024-01-27T10:36:26;9.40;;;2.78;;
24559;SDS011;12727;49.934;8.656;2024-01-27T10:39:13;7.95;;;3.03;;
24559;SDS011;12727;49.934;8.656;2024-01-27T10:41:41;6.38;;;2.75;;
24559;SDS011;12727;49.934;8.656;2024-01-27T10:44:16;12.00;;;2.72;;
24559;SDS011;12727;49.934;8.656;2024-01-27T10:46:46;12.30;;;2.80;;
24559;SDS011;12727;49.934;8.656;2024-01-27T10:49:13;7.80;;;2.25;;
24559;SDS011;12727;49.934;8.656;2024-01-27T10:51:44;8.13;;;2.03;;
24559;SDS011;12727;49.934;8.656;2024-01-27T10:54:22;10.02;;;2.33;;
24559;SDS011;12727;49.934;8.656;2024-01-27T10:59:20;11.70;;;2.63;;
24559;SDS011;12727;49.934;8.656;2024-01-27T11:01:47;13.02;;;3.17;;
24559;SDS011;12727;49.934;8.656;2024-01-27T11:04:17;10.60;;;2.55;;
24559;SDS011;12727;49.934;8.656;2024-01-27T11:06:45;8.43;;;2.42;;
24559;SDS011;12727;49.934;8.656;2024-01-27T11:09:13;9.98;;;2.92;;
24559;SDS011;12727;49.934;8.656;2024-01-27T11:11:40;9.88;;;2.28;;
24559;SDS011;12727;49.934;8.656;2024-01-27T11:14:08;12.45;;;2.92;;
24559;SDS011;12727;49.934;8.656;2024-01-27T11:16:37;9.88;;;2.70;;
24559;SDS011;12727;49.934;8.656;2024-01-27T11:19:11;14.57;;;2.90;;
24559;SDS011;12727;49.934;8.656;2024-01-27T11:21:37;12.85;;;3.00;;
24559;SDS011;12727;49.934;8.656;2024-01-27T11:24:13;9.60;;;2.97;;
24559;SDS011;12727;49.934;8.656;2024-01-27T11:26:39;9.93;;;2.78;;
24559;SDS011;12727;49.934;8.656;2024-01-27T11:29:07;11.48;;;3.05;;
24559;SDS011;12727;49.934;8.656;2024-01-27T11:31:34;9.07;;;3.00;;
24559;SDS011;12727;49.934;8.656;2024-01-27T11:34:00;12.63;;;3.20;;
24559;SDS011;12727;49.934;8.656;2024-01-27T11:36:26;12.32;;;3.05;;
24559;SDS011;12727;49.934;8.656;2024-01-27T11:38:53;9.75;;;3.00;;
24559;SDS011;12727;49.934;8.656;2024-01-27T11:41:25;9.48;;;3.20;;
24559;SDS011;12727;49.934;8.656;2024-01-27T11:43:52;10.88;;;3.40;;
24559;SDS011;12727;49.934;8.656;2024-01-27T11:46:22;10.55;;;3.40;;
24559;SDS011;12727;49.934;8.656;2024-01-27T11:48:48;12.95;;;3.13;;
24559;SDS011;12727;49.934;8.656;2024-01-27T11:51:14;13.82;;;3.15;;
24559;SDS011;12727;49.934;8.656;2024-01-27T11:53:40;13.82;;;3.30;;
24559;SDS011;12727;49.934;8.656;2024-01-27T11:56:06;14.38;;;2.88;;
24559;SDS011;12727;49.934;8.656;2024-01-27T11:58:32;13.90;;;3.60;;
24559;SDS011;12727;49.934;8.656;2024-01-27T12:00:58;14.48;;;3.13;;
24559;SDS011;12727;49.934;8.656;2024-01-27T12:03:24;12.45;;;3.20;;
24559;SDS011;12727;49.934;8.656;2024-01-27T12:05:50;12.05;;;3.85;;
24559;SDS011;12727;49.934;8.656;2024-01-27T12:08:16;9.70;;;3.53;;
24559;SDS011;12727;49.934;8.656;2024-01-27T12:10:42;12.20;;;3.00;;
24559;SDS011;12727;49.934;8.656;2024-01-27T12:13:08;11.35;;;3.42;;
24559;SDS011;12727;49.934;8.656;2024-01-27T12:15:34;8.73;;;3.20;;
24559;SDS011;12727;49.934;8.656;2024-01-27T12:17:59;13.10;;;3.20;;
24559;SDS011;12727;49.934;8.656;2024-01-27T12:20:25;12.95;;;3.30;;
24559;SDS011;12727;49.934;8.656;2024-01-27T12:23:01;13.45;;;3.90;;
24559;SDS011;12727;49.934;8.656;2024-01-27T12:25:30;15.20;;;3.60;;
24559;SDS011;12727;49.934;8.656;2024-01-27T12:27:56;14.88;;;3.72;;
24559;SDS011;12727;49.934;8.656;2024-01-27T12:30:25;13.88;;;3.20;;
24559;SDS011;12727;49.934;8.656;2024-01-27T12:32:51;13.15;;;3.17;;
24559;SDS011;12727;49.934;8.656;2024-01-27T12:35:17;13.68;;;3.40;;
24559;SDS011;12727;49.934;8.656;2024-01-27T12:37:43;12.40;;;3.55;;
24559;SDS011;12727;49.934;8.656;2024-01-27T12:40:18;13.35;;;3.33;;
24559;SDS011;12727;49.934;8.656;2024-01-27T12:42:45;14.90;;;4.55;;
24559;SDS011;12727;49.934;8.656;2024-01-27T12:45:11;10.93;;;3.25;;
24559;SDS011;12727;49.934;8.656;2024-01-27T12:47:37;8.02;;;3.30;;
24559;SDS011;12727;49.934;8.656;2024-01-27T12:50:03;11.57;;;3.58;;
24559;SDS011;12727;49.934;8.656;2024-01-27T12:52:29;14.75;;;3.30;;
24559;SDS011;12727;49.934;8.656;2024-01-27T12:54:55;11.18;;;3.20;;
24559;SDS011;12727;49.934;8.656;2024-01-27T12:57:20;12.40;;;4.13;;
24559;SDS011;12727;49.934;8.656;2024-01-27T12:59:46;11.02;;;3.17;;
24559;SDS011;12727;49.934;8.656;2024-01-27T13:02:11;10.57;;;3.28;;
24559;SDS011;12727;49.934;8.656;2024-01-27T13:04:37;11.80;;;3.72;;
24559;SDS011;12727;49.934;8.656;2024-01-27T13:07:02;13.55;;;3.05;;
24559;SDS011;12727;49.934;8.656;2024-01-27T13:09:28;16.38;;;3.03;;
24559;SDS011;12727;49.934;8.656;2024-01-27T13:11:54;9.32;;;2.90;;
24559;SDS011;12727;49.934;8.656;2024-01-27T13:14:19;16.08;;;2.88;;
24559;SDS011;12727;49.934;8.656;2024-01-27T13:16:45;14.77;;;3.38;;
24559;SDS011;12727;49.934;8.656;2024-01-27T13:19:11;12.88;;;3.25;;
24559;SDS011;12727;49.934;8.656;2024-01-27T13:21:36;13.98;;;3.42;;
24559;SDS011;12727;49.934;8.656;2024-01-27T13:24:02;11.68;;;3.20;;
24559;SDS011;12727;49.934;8.656;2024-01-27T13:26:28;12.80;;;3.17;;
24559;SDS011;12727;49.934;8.656;2024-01-27T13:28:55;13.50;;;3.65;;
24559;SDS011;12727;49.934;8.656;2024-01-27T13:31:21;13.05;;;3.35;;
24559;SDS011;12727;49.934;8.656;2024-01-27T13:33:47;11.10;;;2.75;;
24559;SDS011;12727;49.934;8.656;2024-01-27T13:36:12;9.65;;;2.40;;
24559;SDS011;12727;49.934;8.656;2024-01-27T13:38:38;10.45;;;3.40;;
24559;SDS011;12727;49.934;8.656;2024-01-27T13:41:03;14.30;;;3.05;;
24559;SDS011;12727;49.934;8.656;2024-01-27T13:43:29;11.95;;;3.50;;
24559;SDS011;12727;49.934;8.656;2024-01-27T13:45:54;12.20;;;3.10;;
24559;SDS011;12727;49.934;8.656;2024-01-27T13:48:20;13.13;;;3.45;;
24559;SDS011;12727;49.934;8.656;2024-01-27T13:50:46;11.23;;;3.20;;
24559;SDS011;12727;49.934;8.656;2024-01-27T13:53:11;17.45;;;3.40;;
24559;SDS011;12727;49.934;8.656;2024-01-27T13:55:37;9.05;;;2.47;;
24559;SDS011;12727;49.934;8.656;2024-01-27T13:58:05;9.95;;;2.67;;
24559;SDS011;12727;49.934;8.656;2024-01-27T14:00:31;13.77;;;3.10;;
24559;SDS011;12727;49.934;8.656;2024-01-27T14:02:58;13.00;;;2.63;;
24559;SDS011;12727;49.934;8.656;2024-01-27T14:05:24;13.82;;;2.55;;
24559;SDS011;12727;49.934;8.656;2024-01-27T14:07:49;14.95;;;2.58;;
24559;SDS011;12727;49.934;8.656;2024-01-27T14:10:15;17.35;;;4.15;;
24559;SDS011;12727;49.934;8.656;2024-01-27T14:12:41;14.40;;;4.18;;
24559;SDS011;12727;49.934;8.656;2024-01-27T14:15:06;11.98;;;2.30;;
24559;SDS011;12727;49.934;8.656;2024-01-27T14:17:33;19.17;;;2.92;;
24559;SDS011;12727;49.934;8.656;2024-01-27T14:20:02;12.13;;;3.40;;
24559;SDS011;12727;49.934;8.656;2024-01-27T14:22:28;19.63;;;3.80;;
24559;SDS011;12727;49.934;8.656;2024-01-27T14:24:54;11.50;;;2.85;;
24559;SDS011;12727;49.934;8.656;2024-01-27T14:27:20;13.30;;;3.47;;
24559;SDS011;12727;49.934;8.656;2024-01-27T14:29:51;12.98;;;3.25;;
24559;SDS011;12727;49.934;8.656;2024-01-27T14:32:20;15.52;;;2.50;;
24559;SDS011;12727;49.934;8.656;2024-01-27T14:34:46;13.02;;;2.35;;
24559;SDS011;12727;49.934;8.656;2024-01-27T14:37:12;14.80;;;2.13;;
24559;SDS011;12727;49.934;8.656;2024-01-27T14:39:39;14.85;;;3.03;;